createdAt,value
2023-03-16T00:00:43.787Z,6.00
2023-03-16T00:03:13.079Z,6.00
2023-03-16T00:05:42.308Z,6.00
2023-03-16T00:08:09.234Z,6.00
2023-03-16T00:10:36.511Z,5.90
2023-03-16T00:13:03.447Z,5.90
2023-03-16T00:15:30.377Z,5.90
2023-03-16T00:17:58.643Z,5.90
2023-03-16T00:20:25.792Z,5.90
2023-03-16T00:22:52.776Z,5.90
2023-03-16T00:25:19.846Z,5.90
2023-03-16T00:27:50.265Z,5.90
2023-03-16T00:30:20.147Z,5.90
2023-03-16T00:32:47.204Z,5.90
2023-03-16T00:35:15.721Z,5.90
2023-03-16T00:37:44.303Z,5.90
2023-03-16T00:40:12.729Z,5.90
2023-03-16T00:42:39.963Z,5.90
2023-03-16T00:45:17.084Z,5.90
2023-03-16T00:47:43.942Z,5.90
2023-03-16T00:50:11.889Z,5.90
2023-03-16T00:52:40.378Z,5.90
2023-03-16T00:55:08.706Z,5.90
2023-03-16T00:57:35.601Z,5.90
2023-03-16T01:00:12.672Z,5.90
2023-03-16T01:02:39.736Z,5.90
2023-03-16T01:05:09.336Z,5.90
2023-03-16T01:07:38.847Z,5.80
2023-03-16T01:10:09.197Z,5.90
2023-03-16T01:12:36.204Z,5.80
2023-03-16T01:15:03.418Z,5.90
2023-03-16T01:17:34.900Z,5.90
2023-03-16T01:20:05.215Z,5.90
2023-03-16T01:22:33.613Z,5.90
2023-03-16T01:25:00.508Z,5.90
2023-03-16T01:27:30.353Z,5.90
2023-03-16T01:34:18.712Z,5.80
2023-03-16T01:36:55.309Z,5.90
2023-03-16T01:39:22.198Z,5.90
2023-03-16T01:41:49.252Z,5.80
2023-03-16T01:44:22.425Z,5.90
2023-03-16T01:46:49.378Z,5.90
2023-03-16T01:49:23.813Z,5.90
2023-03-16T01:51:52.359Z,5.90
2023-03-16T01:54:23.652Z,5.90
2023-03-16T02:15:57.497Z,5.90
2023-03-16T02:18:24.632Z,5.90
2023-03-16T02:20:56.883Z,5.90
2023-03-16T02:23:25.252Z,5.90
2023-03-16T02:26:01.715Z,5.90
2023-03-16T02:28:37.380Z,5.90
2023-03-16T02:31:06.904Z,5.90
2023-03-16T02:33:34.997Z,5.90
2023-03-16T02:36:01.989Z,5.90
2023-03-16T02:38:29.030Z,5.90
2023-03-16T02:41:09.973Z,5.90
2023-03-16T02:43:39.901Z,5.90
2023-03-16T02:46:13.996Z,5.90
2023-03-16T02:48:45.697Z,5.90
2023-03-16T02:51:13.086Z,5.90
2023-03-16T02:53:40.029Z,5.90
2023-03-16T02:56:07.726Z,5.90
2023-03-16T02:58:34.867Z,5.90
2023-03-16T03:01:01.784Z,5.90
2023-03-16T03:03:30.319Z,5.90
2023-03-16T03:05:57.492Z,5.90
2023-03-16T03:08:24.511Z,5.90
2023-03-16T03:10:51.547Z,5.90
2023-03-16T03:13:18.744Z,5.90
2023-03-16T03:15:45.666Z,5.90
2023-03-16T03:18:14.568Z,5.90
2023-03-16T03:20:43.273Z,5.90
2023-03-16T03:23:10.574Z,5.90
2023-03-16T03:25:37.476Z,5.90
2023-03-16T03:28:05.831Z,5.90
2023-03-16T03:30:33.408Z,5.90
2023-03-16T03:33:03.614Z,5.90
2023-03-16T03:35:30.659Z,5.90
2023-03-16T03:37:58.949Z,5.90
2023-03-16T03:40:26.377Z,5.90
2023-03-16T03:42:53.484Z,5.90
2023-03-16T03:50:24.410Z,5.90
2023-03-16T03:52:51.624Z,5.80
2023-03-16T03:55:19.975Z,5.80
2023-03-16T03:57:46.857Z,5.80
2023-03-16T04:00:16.683Z,5.80
2023-03-16T04:02:43.712Z,5.80
2023-03-16T04:12:38.980Z,5.80
2023-03-16T04:16:02.381Z,5.70
2023-03-16T04:18:40.733Z,5.70
2023-03-16T04:41:16.011Z,5.70
2023-03-16T04:43:44.797Z,5.70
2023-03-16T04:46:12.349Z,5.70
2023-03-16T04:48:39.614Z,5.70
2023-03-16T04:51:07.160Z,5.70
2023-03-16T04:53:34.068Z,5.70
2023-03-16T04:56:01.503Z,5.70
2023-03-16T04:58:28.581Z,5.70
2023-03-16T05:00:56.952Z,5.70
2023-03-16T05:03:24.129Z,5.70
2023-03-16T05:05:51.229Z,5.70
2023-03-16T05:08:18.225Z,5.70
2023-03-16T05:10:46.573Z,5.70
2023-03-16T05:13:19.992Z,5.70
2023-03-16T05:15:47.037Z,5.70
2023-03-16T05:18:15.528Z,5.70
2023-03-16T05:20:42.902Z,5.70
2023-03-16T05:23:09.891Z,5.70
2023-03-16T05:25:37.028Z,5.70
2023-03-16T05:28:04.193Z,5.60
2023-03-16T05:30:31.453Z,5.60
2023-03-16T05:32:58.510Z,5.60
2023-03-16T05:35:28.233Z,5.60
2023-03-16T05:37:57.569Z,5.50
2023-03-16T05:40:24.634Z,5.50
2023-03-16T05:42:56.926Z,5.60
2023-03-16T05:45:24.611Z,5.60
2023-03-16T05:47:52.772Z,5.50
2023-03-16T05:50:20.312Z,5.50
2023-03-16T05:52:48.592Z,5.50
2023-03-16T05:55:27.702Z,5.50
2023-03-16T05:57:54.573Z,5.50
2023-03-16T06:00:22.820Z,5.40
2023-03-16T06:02:51.902Z,5.50
2023-03-16T06:05:21.802Z,5.50
2023-03-16T06:07:50.254Z,5.50
2023-03-16T06:10:18.206Z,5.50
2023-03-16T06:12:45.404Z,5.50
2023-03-16T06:15:13.031Z,5.60
2023-03-16T06:17:41.449Z,5.50
2023-03-16T06:20:12.970Z,5.60
2023-03-16T06:22:41.658Z,5.60
2023-03-16T06:25:14.563Z,5.70
2023-03-16T06:27:44.398Z,5.70
2023-03-16T06:30:13.815Z,5.70
2023-03-16T06:32:45.420Z,5.70
2023-03-16T06:35:13.234Z,5.70
2023-03-16T06:37:40.416Z,5.70
2023-03-16T06:40:20.281Z,5.70
2023-03-16T06:42:47.914Z,5.70
2023-03-16T06:45:16.785Z,5.80
2023-03-16T06:47:52.229Z,5.80
2023-03-16T06:50:19.461Z,5.80
2023-03-16T06:52:46.391Z,5.80
2023-03-16T06:55:14.915Z,5.80
2023-03-16T06:57:42.298Z,5.80
2023-03-16T07:00:11.549Z,5.80
2023-03-16T07:02:40.498Z,5.90
2023-03-16T07:05:08.455Z,5.90
2023-03-16T07:07:35.724Z,5.90
2023-03-16T07:10:02.684Z,5.90
2023-03-16T07:12:31.468Z,5.90
2023-03-16T07:14:58.523Z,6.00
2023-03-16T07:17:25.667Z,6.00
2023-03-16T07:19:52.546Z,6.00
2023-03-16T07:22:19.635Z,6.00
2023-03-16T07:24:57.547Z,6.00
2023-03-16T07:27:24.858Z,6.00
2023-03-16T07:29:53.470Z,6.10
2023-03-16T07:32:20.437Z,6.10
2023-03-16T07:34:47.450Z,6.10
2023-03-16T07:37:17.143Z,6.10
2023-03-16T07:39:45.174Z,6.20
2023-03-16T07:42:11.990Z,6.20
2023-03-16T07:44:38.984Z,6.20
2023-03-16T07:47:07.782Z,6.20
2023-03-16T07:49:34.765Z,6.30
2023-03-16T07:52:01.830Z,6.30
2023-03-16T07:54:28.708Z,6.40
2023-03-16T07:56:55.976Z,6.40
2023-03-16T07:59:22.924Z,6.40
2023-03-16T08:01:50.260Z,6.50
2023-03-16T08:04:18.607Z,6.60
2023-03-16T08:06:45.598Z,6.70
2023-03-16T08:09:12.580Z,6.70
2023-03-16T08:11:42.277Z,6.80
2023-03-16T08:14:09.152Z,6.90
2023-03-16T08:16:36.679Z,6.90
2023-03-16T08:19:03.860Z,6.90
2023-03-16T08:21:33.172Z,7.00
2023-03-16T08:24:00.093Z,7.00
2023-03-16T08:26:27.459Z,7.00
2023-03-16T08:28:55.251Z,7.10
2023-03-16T08:31:25.262Z,7.10
2023-03-16T08:33:52.395Z,7.20
2023-03-16T08:36:20.948Z,7.20
2023-03-16T08:39:05.559Z,7.20
2023-03-16T08:41:35.106Z,7.20
2023-03-16T08:44:10.811Z,7.30
2023-03-16T08:46:38.235Z,7.30
2023-03-16T08:49:06.791Z,7.30
2023-03-16T08:51:34.545Z,7.40
2023-03-16T08:54:02.991Z,7.50
2023-03-16T08:56:30.690Z,7.50
2023-03-16T08:58:57.572Z,7.50
2023-03-16T09:01:25.737Z,7.50
2023-03-16T09:03:52.949Z,7.50
2023-03-16T09:06:20.103Z,7.50
2023-03-16T09:08:47.843Z,7.60
2023-03-16T09:11:17.817Z,7.50
2023-03-16T09:13:46.057Z,7.60
2023-03-16T09:16:15.984Z,7.60
2023-03-16T09:18:43.850Z,7.70
2023-03-16T09:21:13.120Z,7.80
2023-03-16T09:23:43.092Z,7.90
2023-03-16T09:26:13.580Z,7.90
2023-03-16T09:28:42.554Z,8.00
2023-03-16T09:31:12.997Z,8.10
2023-03-16T09:33:40.224Z,8.20
2023-03-16T09:36:07.338Z,8.20
2023-03-16T09:38:34.125Z,8.20
2023-03-16T09:41:06.802Z,8.30
2023-03-16T09:43:51.804Z,8.40
2023-03-16T09:46:27.001Z,8.40
2023-03-16T09:48:54.885Z,8.60
2023-03-16T09:51:29.271Z,8.80
2023-03-16T09:53:58.362Z,9.10
2023-03-16T09:56:31.978Z,9.40
2023-03-16T09:59:01.489Z,9.90
2023-03-16T10:01:40.570Z,10.20
2023-03-16T10:04:16.910Z,10.30
2023-03-16T10:06:48.604Z,10.50
2023-03-16T10:09:26.182Z,10.80
2023-03-16T10:11:55.234Z,10.90
2023-03-16T10:14:26.651Z,10.90
2023-03-16T10:16:59.921Z,11.10
2023-03-16T10:19:36.878Z,11.40
2023-03-16T10:22:17.590Z,11.40
2023-03-16T10:24:56.800Z,11.60
2023-03-16T10:27:28.626Z,11.70
2023-03-16T10:29:57.274Z,11.90
2023-03-16T10:32:29.191Z,12.00
2023-03-16T10:35:00.589Z,12.20
2023-03-16T10:37:30.921Z,12.20
2023-03-16T10:40:00.777Z,12.20
2023-03-16T10:42:28.492Z,12.20
2023-03-16T10:45:20.675Z,12.10
2023-03-16T10:47:47.773Z,11.90
2023-03-16T10:50:23.726Z,11.80
2023-03-16T10:52:53.241Z,11.70
2023-03-16T10:55:33.213Z,11.60
2023-03-16T10:58:01.314Z,11.50
2023-03-16T11:00:34.620Z,11.50
2023-03-16T11:03:02.488Z,11.50
2023-03-16T11:05:32.183Z,11.50
2023-03-16T11:08:02.245Z,11.50
2023-03-16T11:10:33.304Z,11.50
2023-03-16T11:13:03.782Z,11.60
2023-03-16T11:15:40.015Z,11.50
2023-03-16T11:18:16.265Z,11.60
2023-03-16T11:20:43.841Z,11.70
2023-03-16T11:23:16.365Z,11.80
2023-03-16T11:25:48.693Z,11.90
2023-03-16T11:28:23.173Z,11.90
2023-03-16T11:31:02.948Z,12.10
2023-03-16T11:33:31.348Z,12.20
2023-03-16T11:36:08.965Z,12.30
2023-03-16T11:38:48.625Z,12.40
2023-03-16T11:41:25.686Z,12.60
2023-03-16T11:43:55.796Z,12.80
2023-03-16T11:46:27.683Z,12.80
2023-03-16T11:49:14.928Z,12.90
2023-03-16T11:51:47.957Z,12.90
2023-03-16T11:54:44.203Z,13.00
2023-03-16T11:57:28.108Z,13.00
2023-03-16T12:00:07.737Z,13.00
2023-03-16T12:02:50.594Z,13.00
2023-03-16T12:05:48.665Z,13.00
2023-03-16T12:08:34.133Z,13.10
2023-03-16T12:11:05.549Z,12.90
2023-03-16T12:13:49.063Z,13.10
2023-03-16T12:16:21.321Z,13.20
2023-03-16T12:18:54.166Z,13.40
2023-03-16T12:21:26.388Z,13.40
2023-03-16T12:23:55.393Z,13.40
2023-03-16T12:26:25.499Z,13.40
2023-03-16T12:28:53.123Z,13.50
2023-03-16T12:31:23.933Z,13.50
2023-03-16T12:34:13.187Z,13.60
2023-03-16T12:37:07.154Z,13.60
2023-03-16T12:40:07.695Z,13.70
2023-03-16T12:42:49.452Z,14.20
2023-03-16T12:45:23.609Z,14.80
2023-03-16T12:47:55.032Z,15.00
2023-03-16T12:50:24.747Z,15.00
2023-03-16T12:52:53.425Z,14.90
2023-03-16T12:55:24.677Z,14.90
2023-03-16T12:57:58.960Z,14.90
2023-03-16T13:00:35.646Z,14.80
2023-03-16T13:03:04.215Z,14.60
2023-03-16T13:05:34.572Z,14.60
2023-03-16T13:08:11.838Z,14.60
2023-03-16T13:10:39.386Z,14.90
2023-03-16T13:13:12.904Z,15.00
2023-03-16T13:15:42.958Z,15.20
2023-03-16T13:18:24.183Z,15.20
2023-03-16T13:20:58.572Z,15.20
2023-03-16T13:23:32.829Z,15.20
2023-03-16T13:26:15.627Z,15.30
2023-03-16T13:28:52.070Z,15.30
2023-03-16T13:31:25.302Z,15.30
2023-03-16T13:34:03.141Z,15.20
2023-03-16T13:36:33.765Z,15.10
2023-03-16T13:39:07.071Z,15.10
2023-03-16T13:41:34.384Z,15.10
2023-03-16T13:44:01.995Z,15.10
2023-03-16T13:46:30.411Z,15.20
2023-03-16T13:49:00.699Z,15.40
2023-03-16T13:51:30.943Z,15.60
2023-03-16T13:54:04.031Z,15.50
2023-03-16T13:56:33.144Z,15.60
2023-03-16T13:59:01.016Z,15.60
2023-03-16T14:01:31.339Z,15.70
2023-03-16T14:04:00.354Z,15.70
2023-03-16T14:06:29.496Z,15.70
2023-03-16T14:09:01.519Z,15.80
2023-03-16T14:11:29.082Z,15.80
2023-03-16T14:14:00.507Z,15.80
2023-03-16T14:16:28.906Z,15.90
2023-03-16T14:19:02.053Z,15.90
2023-03-16T14:21:51.813Z,15.90
2023-03-16T14:24:31.154Z,15.80
2023-03-16T14:27:10.004Z,15.70
2023-03-16T14:29:37.820Z,15.70
2023-03-16T14:32:23.415Z,15.60
2023-03-16T14:34:53.033Z,15.60
2023-03-16T14:37:23.135Z,15.60
2023-03-16T14:40:02.891Z,15.70
2023-03-16T14:42:36.406Z,15.80
2023-03-16T14:45:11.013Z,15.70
2023-03-16T14:47:43.487Z,15.60
2023-03-16T14:50:17.811Z,15.60
2023-03-16T14:52:53.143Z,15.60
2023-03-16T14:55:24.060Z,15.50
2023-03-16T14:57:52.004Z,15.40
2023-03-16T15:00:21.777Z,15.30
2023-03-16T15:02:57.324Z,15.20
2023-03-16T15:05:31.404Z,15.20
2023-03-16T15:07:59.193Z,15.20
2023-03-16T15:10:30.106Z,15.10
2023-03-16T15:13:06.090Z,15.00
2023-03-16T15:15:32.998Z,15.00
2023-03-16T15:18:00.425Z,15.00
2023-03-16T15:20:33.365Z,15.00
2023-03-16T15:23:01.756Z,15.20
2023-03-16T15:25:36.449Z,15.30
2023-03-16T15:28:10.369Z,15.40
2023-03-16T15:30:38.072Z,15.40
2023-03-16T15:33:05.380Z,15.30
2023-03-16T15:35:32.381Z,15.30
2023-03-16T15:38:00.756Z,15.20
2023-03-16T15:40:38.285Z,15.20
2023-03-16T15:43:09.681Z,15.20
2023-03-16T15:45:40.772Z,15.20
2023-03-16T15:48:09.782Z,15.20
2023-03-16T15:50:40.935Z,15.20
2023-03-16T15:53:29.874Z,15.20
2023-03-16T15:56:03.241Z,15.10
2023-03-16T15:58:31.594Z,15.00
2023-03-16T16:01:00.642Z,15.00
2023-03-16T16:03:28.054Z,14.90
2023-03-16T16:05:55.190Z,15.00
2023-03-16T16:08:22.286Z,15.10
2023-03-16T16:10:50.496Z,15.20
2023-03-16T16:13:23.357Z,15.10
2023-03-16T16:15:54.630Z,15.00
2023-03-16T16:18:29.308Z,15.00
2023-03-16T16:20:57.548Z,15.00
2023-03-16T16:23:25.734Z,15.00
2023-03-16T16:25:54.279Z,15.00
2023-03-16T16:28:29.652Z,14.90
2023-03-16T16:30:57.957Z,14.90
2023-03-16T16:33:27.056Z,14.90
2023-03-16T16:35:55.613Z,14.90
2023-03-16T16:38:23.334Z,14.90
2023-03-16T16:40:51.706Z,14.90
2023-03-16T16:43:41.442Z,14.90
2023-03-16T16:46:14.127Z,14.70
2023-03-16T16:48:47.904Z,14.70
2023-03-16T16:51:18.443Z,14.60
2023-03-16T16:53:45.395Z,14.50
2023-03-16T16:56:14.088Z,14.40
2023-03-16T16:58:43.265Z,14.30
2023-03-16T17:01:15.739Z,14.10
2023-03-16T17:03:43.547Z,14.00
2023-03-16T17:06:16.917Z,13.90
2023-03-16T17:08:44.518Z,13.80
2023-03-16T17:11:17.501Z,13.80
2023-03-16T17:13:47.011Z,13.70
2023-03-16T17:16:18.306Z,13.60
2023-03-16T17:18:47.852Z,13.50
2023-03-16T17:21:17.241Z,13.50
2023-03-16T17:23:44.657Z,13.40
2023-03-16T17:26:16.651Z,13.30
2023-03-16T17:28:49.042Z,13.20
2023-03-16T17:31:21.519Z,13.20
2023-03-16T17:33:49.912Z,13.10
2023-03-16T17:36:17.801Z,13.00
2023-03-16T17:38:44.966Z,13.00
2023-03-16T17:41:25.388Z,12.90
2023-03-16T17:43:55.888Z,12.90
2023-03-16T17:46:25.408Z,12.90
2023-03-16T17:48:53.303Z,12.80
2023-03-16T17:51:21.275Z,12.80
2023-03-16T17:53:49.005Z,12.70
2023-03-16T17:56:21.429Z,12.60
2023-03-16T17:58:52.848Z,12.60
2023-03-16T18:01:25.254Z,12.50
2023-03-16T18:03:52.352Z,12.40
2023-03-16T18:06:25.289Z,12.40
2023-03-16T18:08:53.008Z,12.40
2023-03-16T18:11:22.612Z,12.30
2023-03-16T18:13:51.988Z,12.20
2023-03-16T18:16:25.391Z,12.20
2023-03-16T18:18:57.745Z,12.10
2023-03-16T18:21:26.015Z,12.10
2023-03-16T18:23:53.751Z,12.00
2023-03-16T18:26:23.846Z,12.00
2023-03-16T18:28:53.342Z,12.00
2023-03-16T18:31:24.851Z,12.00
2023-03-16T18:33:59.486Z,12.00
2023-03-16T18:36:28.897Z,11.90
2023-03-16T18:38:58.578Z,11.90
2023-03-16T18:41:26.992Z,12.00
2023-03-16T18:43:56.045Z,11.90
2023-03-16T18:46:27.205Z,12.00
2023-03-16T18:48:57.301Z,12.00
2023-03-16T18:51:25.591Z,12.00
2023-03-16T18:53:53.430Z,12.00
2023-03-16T18:56:22.009Z,12.00
2023-03-16T18:58:49.468Z,12.00
2023-03-16T19:01:25.958Z,11.90
2023-03-16T19:03:55.027Z,11.90
2023-03-16T19:06:27.420Z,11.90
2023-03-16T19:08:57.611Z,11.90
2023-03-16T19:11:24.509Z,11.90
2023-03-16T19:13:54.673Z,11.90
2023-03-16T19:16:22.798Z,11.80
2023-03-16T19:18:51.042Z,11.80
2023-03-16T19:21:25.243Z,11.70
2023-03-16T19:23:56.794Z,11.70
2023-03-16T19:26:24.324Z,11.60
2023-03-16T19:28:51.609Z,11.60
2023-03-16T19:31:21.488Z,11.60
2023-03-16T19:33:52.234Z,11.50
2023-03-16T19:36:21.990Z,11.40
2023-03-16T19:38:52.671Z,11.40
2023-03-16T19:41:23.679Z,11.30
2023-03-16T19:43:51.965Z,11.20
2023-03-16T19:46:19.594Z,11.20
2023-03-16T19:48:47.475Z,11.10
2023-03-16T19:51:17.515Z,11.00
2023-03-16T19:53:44.488Z,11.00
2023-03-16T19:56:16.299Z,10.90
2023-03-16T19:58:45.713Z,10.90
2023-03-16T20:01:19.085Z,10.90
2023-03-16T20:03:47.864Z,10.80
2023-03-16T20:06:21.611Z,10.80
2023-03-16T20:08:55.874Z,10.80
2023-03-16T20:11:27.323Z,10.70
2023-03-16T20:13:57.448Z,10.70
2023-03-16T20:16:28.380Z,10.70
2023-03-16T20:18:57.929Z,10.60
2023-03-16T20:21:27.440Z,10.60
2023-03-16T20:23:54.939Z,10.60
2023-03-16T20:26:24.820Z,10.50
2023-03-16T20:28:52.392Z,10.50
2023-03-16T20:31:21.807Z,10.50
2023-03-16T20:33:50.704Z,10.50
2023-03-16T20:36:18.631Z,10.40
2023-03-16T20:38:47.843Z,10.30
2023-03-16T20:41:20.600Z,10.30
2023-03-16T20:43:47.570Z,10.30
2023-03-16T20:46:19.873Z,10.30
2023-03-16T20:48:46.995Z,10.30
2023-03-16T20:51:15.363Z,10.20
2023-03-16T20:53:44.071Z,10.20
2023-03-16T20:56:17.133Z,10.20
2023-03-16T20:58:46.899Z,10.10
2023-03-16T21:01:22.844Z,10.10
2023-03-16T21:03:52.117Z,10.00
2023-03-16T21:06:23.791Z,10.00
2023-03-16T21:08:52.128Z,9.90
2023-03-16T21:11:24.212Z,9.90
2023-03-16T21:13:52.873Z,9.90
2023-03-16T21:16:21.277Z,9.90
2023-03-16T21:18:48.725Z,9.90
2023-03-16T21:21:18.260Z,9.90
2023-03-16T21:23:45.701Z,9.80
2023-03-16T21:26:16.959Z,9.80
2023-03-16T21:28:56.431Z,9.80
2023-03-16T21:31:24.144Z,9.70
2023-03-16T21:33:53.795Z,9.70
2023-03-16T21:36:23.378Z,9.70
2023-03-16T21:38:51.037Z,9.60
2023-03-16T21:41:18.490Z,9.60
2023-03-16T21:43:47.552Z,9.60
2023-03-16T21:46:18.196Z,9.60
2023-03-16T21:48:49.154Z,9.50
2023-03-16T21:51:18.909Z,9.50
2023-03-16T21:53:48.589Z,9.50
2023-03-16T21:56:18.712Z,9.50
2023-03-16T21:58:48.238Z,9.60
2023-03-16T22:01:23.521Z,9.60
2023-03-16T22:03:53.538Z,9.50
2023-03-16T22:06:21.087Z,9.50
2023-03-16T22:08:49.175Z,9.50
2023-03-16T22:11:18.975Z,9.50
2023-03-16T22:13:47.982Z,9.50
2023-03-16T22:16:17.102Z,9.50
2023-03-16T22:18:45.947Z,9.40
2023-03-16T22:21:25.342Z,9.40
2023-03-16T22:23:52.853Z,9.40
2023-03-16T22:26:22.471Z,9.40
2023-03-16T22:28:51.795Z,9.40
2023-03-16T22:31:22.605Z,9.40
2023-03-16T22:33:50.386Z,9.40
2023-03-16T22:36:27.829Z,9.40
2023-03-16T22:38:59.355Z,9.40
2023-03-16T22:41:27.362Z,9.40
2023-03-16T22:43:56.313Z,9.50
2023-03-16T22:46:25.870Z,9.40
2023-03-16T22:48:54.176Z,9.40
2023-03-16T22:51:24.047Z,9.40
2023-03-16T22:53:53.733Z,9.40
2023-03-16T22:56:20.952Z,9.40
2023-03-16T22:58:50.985Z,9.40
2023-03-16T23:01:23.142Z,9.40
2023-03-16T23:03:51.772Z,9.40
2023-03-16T23:06:21.468Z,9.40
2023-03-16T23:08:49.481Z,9.40
2023-03-16T23:11:22.117Z,9.40
2023-03-16T23:13:49.749Z,9.30
2023-03-16T23:16:24.617Z,9.40
2023-03-16T23:18:52.365Z,9.40
2023-03-16T23:21:22.123Z,9.40
2023-03-16T23:24:03.944Z,9.40
2023-03-16T23:26:31.933Z,9.30
2023-03-16T23:29:15.444Z,9.30
2023-03-16T23:31:43.688Z,9.30
2023-03-16T23:36:53.214Z,9.30
2023-03-16T23:39:20.256Z,9.20
2023-03-16T23:41:49.704Z,9.20
2023-03-16T23:44:19.316Z,9.20
2023-03-16T23:46:48.121Z,9.20
2023-03-16T23:49:19.590Z,9.10
2023-03-16T23:51:46.665Z,9.10
2023-03-16T23:54:17.647Z,9.10
2023-03-16T23:56:44.587Z,9.10
2023-03-16T23:59:12.072Z,9.10
